»·PEaware :: N72C KMRY-KBUR

N72C :: KMRY-KBUR

FLIGHT INFORMATION

Flight Status: Arrived
Operator: Privately registered:
United States
More flights under this callsign
Pilot: Charles C. (26995)
Aircraft: SOCATA TBM-900
(TBM9)
More flights by this aircraft type
Origin: KMRY Monterey Peninsula
United States
Destination: KBUR Bob Hope-Burbank
United States
More flights between these airports :: More routes between these airports
Route: +MRY5 SNS AVE FERN7
File this flight plan on PilotEdge
Remarks:
Altitude:
(Current/Filed)
25,000ft
Speed:
(Current/Filed)
305kts
Departed: 19-Nov-20 08:58 AM
Arrived: 19-Nov-20 09:55 AM
Distance/Time
Traveled:
223nm/0:57
Distance/Time
To Go:
Arrived

Flight Plot

Page will automatically refresh every two minutes.

Flight plan parsing failed; only flown route is shown


Map Options




Map Legend


Flown Route
Filed Route
Departure Airport
Arrival Airport
Navaid (VOR, NDB)
Fix

Horizontal Profiles

Position Reports

Time Latitude Longitude Heading Altitude Ground
Speed
19-Nov-20 08:41 36.588267 -121.852184 22 173ft 0kts
19-Nov-20 08:42 36.588267 -121.852184 22 173ft 0kts
19-Nov-20 08:43 36.588267 -121.852184 22 173ft 0kts
19-Nov-20 08:44 36.588267 -121.852184 22 173ft 0kts
19-Nov-20 08:45 36.588267 -121.852184 22 173ft 0kts
19-Nov-20 08:46 36.588267 -121.852184 22 173ft 0kts
19-Nov-20 08:47 36.588267 -121.852184 22 173ft 0kts
19-Nov-20 08:48 36.588267 -121.852184 22 173ft 0kts
19-Nov-20 08:49 36.588267 -121.852184 22 173ft 0kts
19-Nov-20 08:50 36.588267 -121.852184 22 173ft 0kts
19-Nov-20 08:51 36.588442 -121.851991 86 172ft 6kts
19-Nov-20 08:52 36.587691 -121.848941 112 181ft 5kts
19-Nov-20 08:53 36.586509 -121.845791 115 197ft 12kts
19-Nov-20 08:54 36.585009 -121.841482 103 230ft 1kts
19-Nov-20 08:55 36.582837 -121.834990 106 235ft 20kts
19-Nov-20 08:56 36.583497 -121.834026 289 228ft 10kts
19-Nov-20 08:57 36.586376 -121.842552 292 214ft 117kts
19-Nov-20 08:58 36.605257 -121.879263 352 2095ft 139kts
19-Nov-20 08:59 36.643196 -121.880108 31 4124ft 151kts
19-Nov-20 09:00 36.649425 -121.824926 90 5482ft 182kts
19-Nov-20 09:01 36.651692 -121.763618 81 7091ft 179kts
19-Nov-20 09:02 36.656693 -121.700796 79 8888ft 185kts
19-Nov-20 09:03 36.661746 -121.635441 82 10720ft 194kts
19-Nov-20 09:04 36.645700 -121.573251 130 12576ft 203kts
19-Nov-20 09:05 36.610625 -121.516192 130 14476ft 212kts
19-Nov-20 09:06 36.574156 -121.456740 131 16181ft 221kts
19-Nov-20 09:07 36.535906 -121.394471 132 18039ft 232kts
19-Nov-20 09:08 36.495436 -121.328817 132 19326ft 261kts
19-Nov-20 09:09 36.447502 -121.251051 131 19310ft 300kts
19-Nov-20 09:10 36.395395 -121.166734 131 19352ft 309kts
19-Nov-20 09:11 36.346503 -121.087781 132 20851ft 277kts
19-Nov-20 09:12 36.300952 -121.014512 133 22459ft 267kts
19-Nov-20 09:13 36.255146 -120.940945 133 23935ft 274kts
19-Nov-20 09:14 36.206546 -120.863081 133 24859ft 301kts
19-Nov-20 09:16 36.153506 -120.778250 133 25294ft 324kts
19-Nov-20 09:17 36.097049 -120.688165 132 25290ft 336kts
19-Nov-20 09:18 36.039293 -120.596282 132 25288ft 339kts
19-Nov-20 09:19 35.981198 -120.504106 132 25289ft 341kts
19-Nov-20 09:20 35.922716 -120.411565 132 25291ft 341kts
19-Nov-20 09:21 35.864232 -120.319258 133 25280ft 341kts
19-Nov-20 09:22 35.805847 -120.227390 133 25280ft 340kts
19-Nov-20 09:23 35.747468 -120.135775 133 25283ft 339kts
19-Nov-20 09:24 35.689107 -120.044378 133 25283ft 339kts
19-Nov-20 09:25 35.626312 -119.960292 152 25301ft 327kts
19-Nov-20 09:26 35.551587 -119.895982 151 25296ft 329kts
19-Nov-20 09:27 35.476695 -119.831289 152 25301ft 329kts
19-Nov-20 09:28 35.402286 -119.767214 152 25309ft 329kts
19-Nov-20 09:29 35.327016 -119.702559 151 25305ft 330kts
19-Nov-20 09:29 35.264047 -119.648437 151 25299ft 330kts
19-Nov-20 09:31 35.175163 -119.572414 151 24456ft 352kts
19-Nov-20 09:32 35.093437 -119.502585 150 22899ft 360kts
19-Nov-20 09:33 35.012813 -119.433933 149 21327ft 348kts
19-Nov-20 09:34 34.934645 -119.367535 148 19753ft 338kts
19-Nov-20 09:35 34.856740 -119.301498 147 17679ft 336kts
19-Nov-20 09:36 34.781491 -119.237866 147 15634ft 322kts
19-Nov-20 09:36 34.720994 -119.186871 147 14045ft 317kts
19-Nov-20 09:38 34.637744 -119.116925 146 11815ft 305kts
19-Nov-20 09:38 34.579847 -119.068390 146 10311ft 298kts
19-Nov-20 09:40 34.503138 -119.003911 146 9247ft 282kts
19-Nov-20 09:40 34.451076 -118.960144 146 8995ft 263kts
19-Nov-20 09:41 34.392085 -118.910814 146 8994ft 249kts
19-Nov-20 09:42 34.337178 -118.868212 152 8989ft 217kts
19-Nov-20 09:43 34.285567 -118.833799 152 8996ft 207kts
19-Nov-20 09:44 34.243042 -118.794826 130 8392ft 178kts
19-Nov-20 09:45 34.215124 -118.744129 121 5676ft 184kts
19-Nov-20 09:46 34.200027 -118.692678 79 3848ft 130kts
19-Nov-20 09:47 34.201055 -118.643378 94 3911ft 166kts
19-Nov-20 09:48 34.200928 -118.586636 89 3887ft 168kts
19-Nov-20 09:49 34.200053 -118.533109 88 3350ft 136kts
19-Nov-20 09:50 34.198733 -118.489221 90 2737ft 125kts
19-Nov-20 09:51 34.198945 -118.448962 91 2052ft 101kts
19-Nov-20 09:52 34.198575 -118.417710 90 1552ft 89kts
19-Nov-20 09:53 34.198132 -118.387285 94 1082ft 91kts
19-Nov-20 09:54 34.197804 -118.361031 89 716ft 34kts
19-Nov-20 09:55 34.199091 -118.357996 357 714ft 11kts
19-Nov-20 09:56 34.200010 -118.359578 12 721ft 0kts
19-Nov-20 09:57 34.200009 -118.359577 12 721ft 0kts
19-Nov-20 09:58 34.200009 -118.359577 12 721ft 0kts
19-Nov-20 09:59 34.200010 -118.359577 12 721ft 0kts
19-Nov-20 10:00 34.200010 -118.359577 12 721ft 0kts
19-Nov-20 10:01 34.200010 -118.359577 12 721ft 0kts
19-Nov-20 10:02 34.200010 -118.359577 12 721ft 0kts
19-Nov-20 10:03 34.200010 -118.359577 12 721ft 0kts
19-Nov-20 10:04 34.200010 -118.359577 12 721ft 0kts
19-Nov-20 10:05 34.200010 -118.359577 12 721ft 0kts
19-Nov-20 10:06 34.200010 -118.359577 12 721ft 0kts
19-Nov-20 10:07 34.200010 -118.359577 12 721ft 0kts
19-Nov-20 10:08 34.200010 -118.359577 12 721ft 0kts
19-Nov-20 10:09 34.200010 -118.359577 12 721ft 0kts

Navigation Log

Ident Type
Flight plan parsing failed, navigation log unavailable